Time;durP1;ratioP1;P1;durP2;ratioP2;P2;SDS_P1;SDS_P2;PMS_P1;PMS_P2;Temp;Humidity;BMP_temperature;BMP_pressure;BME280_temperature;BME280_humidity;BME280_pressure;Samples;Min_cycle;Max_cycle;Signal;HPM_P1;HPM_P2
2021/04/16 00:01:06;;;;;;;3.13;1.58;;;;;;;3.91;65.48;102934.81;5067848;27;20130;-77
2021/04/16 00:03:42;;;;;;;4.05;1.30;;;;;;;3.82;65.54;102935.09;5075804;27;20928;-78
2021/04/16 00:06:19;;;;;;;4.85;1.17;;;;;;;3.72;65.97;102933.69;5104021;27;20129;-79
2021/04/16 00:08:56;;;;;;;3.70;1.05;;;;;;;3.66;66.00;102933.00;5080872;27;20135;-77
2021/04/16 00:11:34;;;;;;;2.50;1.05;;;;;;;3.69;65.97;102927.72;5077604;27;20415;-76
2021/04/16 00:14:12;;;;;;;2.42;1.20;;;;;;;3.60;66.36;102922.81;5070204;27;20387;-79
2021/04/16 00:16:48;;;;;;;4.80;1.30;;;;;;;3.58;66.38;102924.59;5076988;27;20132;-77
2021/04/16 00:19:24;;;;;;;5.25;1.30;;;;;;;3.51;67.41;102918.75;5071850;27;20756;-82
2021/04/16 00:22:01;;;;;;;4.45;1.35;;;;;;;3.53;67.28;102916.09;5103501;27;20425;-79
2021/04/16 00:24:38;;;;;;;4.60;1.40;;;;;;;3.36;67.26;102901.06;5098065;27;20130;-81
2021/04/16 00:27:14;;;;;;;6.03;1.42;;;;;;;3.62;66.31;102914.97;5063198;27;21009;-79
2021/04/16 00:29:51;;;;;;;5.25;1.40;;;;;;;3.53;67.99;102917.84;5094958;27;20122;-76
2021/04/16 00:32:27;;;;;;;4.70;1.38;;;;;;;3.46;67.88;102907.66;5107149;27;20393;-77
2021/04/16 00:35:07;;;;;;;6.07;1.88;;;;;;;3.39;68.16;102906.16;5118575;27;20154;-78
2021/04/16 00:37:44;;;;;;;4.22;1.40;;;;;;;3.34;68.64;102912.38;5079371;27;20367;-79
2021/04/16 00:40:25;;;;;;;6.68;1.17;;;;;;;3.26;69.19;102915.22;5066672;28;20592;-74
2021/04/16 00:43:03;;;;;;;2.35;1.40;;;;;;;3.16;69.39;102906.81;5109707;27;20365;-76
2021/04/16 00:45:39;;;;;;;4.88;1.77;;;;;;;3.16;69.30;102914.59;5110365;27;20186;-78
2021/04/16 00:48:25;;;;;;;4.18;1.50;;;;;;;3.27;69.29;102909.09;5055631;28;20381;-78
2021/04/16 00:51:05;;;;;;;3.67;1.50;;;;;;;3.34;68.83;102910.63;5087822;27;20377;-80
2021/04/16 00:53:54;;;;;;;4.35;1.40;;;;;;;3.21;69.64;102899.78;5061783;28;20360;-77
2021/04/16 00:56:31;;;;;;;5.65;1.38;;;;;;;3.19;69.04;102900.72;5113296;27;20365;-78
2021/04/16 00:59:10;;;;;;;8.00;1.50;;;;;;;3.16;69.75;102901.63;5055230;27;20135;-77
2021/04/16 01:01:46;;;;;;;5.93;2.00;;;;;;;3.09;70.03;102895.81;5062318;27;20372;-78
2021/04/16 01:04:24;;;;;;;2.47;1.17;;;;;;;3.14;69.75;102895.66;5092044;27;20126;-78
2021/04/16 01:07:03;;;;;;;5.28;1.40;;;;;;;3.09;70.40;102889.78;5110902;27;20337;-78
2021/04/16 01:09:40;;;;;;;3.17;1.45;;;;;;;3.17;70.45;102890.38;5094550;27;20379;-78
2021/04/16 01:12:16;;;;;;;5.53;1.17;;;;;;;3.21;70.30;102892.00;5069423;27;20379;-73
2021/04/16 01:15:02;;;;;;;2.90;1.55;;;;;;;3.27;70.08;102876.22;5110683;27;20117;-78
2021/04/16 01:17:38;;;;;;;3.10;1.20;;;;;;;3.36;69.81;102895.03;5072612;27;20372;-80
2021/04/16 01:20:20;;;;;;;2.17;1.27;;;;;;;3.26;70.35;102882.34;5129912;27;20120;-77
2021/04/16 01:23:15;;;;;;;5.53;1.50;;;;;;;3.33;70.28;102892.50;5077838;27;20390;-77
2021/04/16 01:25:51;;;;;;;10.50;1.63;;;;;;;3.38;70.81;102888.03;5044453;28;20365;-78
2021/04/16 01:28:28;;;;;;;7.30;1.70;;;;;;;3.31;71.03;102888.22;5076192;27;20129;-78
2021/04/16 01:31:09;;;;;;;4.20;1.70;;;;;;;3.34;70.89;102889.88;5098791;27;20896;-78
2021/04/16 01:33:46;;;;;;;6.45;1.52;;;;;;;3.34;70.96;102897.66;5086036;27;20707;-76
2021/04/16 01:36:27;;;;;;;9.32;1.70;;;;;;;3.35;71.58;102893.31;5110458;27;20108;-79
2021/04/16 01:39:04;;;;;;;6.72;1.67;;;;;;;3.36;71.37;102898.47;5083250;27;20368;-77
2021/04/16 01:41:40;;;;;;;5.45;2.63;;;;;;;3.27;71.41;102880.56;5111288;27;20117;-78
2021/04/16 01:44:22;;;;;;;5.47;1.88;;;;;;;3.30;71.87;102891.72;5052323;28;20418;-80
2021/04/16 01:47:07;;;;;;;6.28;1.60;;;;;;;3.24;72.08;102889.31;5058657;28;20366;-77
2021/04/16 01:49:52;;;;;;;6.90;1.83;;;;;;;3.28;72.56;102887.47;5071133;28;20381;-77
2021/04/16 01:54:36;;;;;;;5.97;2.15;;;;;;;3.12;72.32;102879.28;5133878;27;20336;-78
2021/04/16 01:57:17;;;;;;;3.65;1.48;;;;;;;3.11;72.94;102895.75;5108808;27;20366;-78
2021/04/16 01:59:54;;;;;;;3.92;1.50;;;;;;;3.11;73.21;102891.41;5111684;27;20344;-78
2021/04/16 02:02:33;;;;;;;6.68;2.17;;;;;;;3.06;73.76;102892.44;5108846;27;20121;-77
2021/04/16 02:05:10;;;;;;;5.32;1.60;;;;;;;3.06;73.77;102885.50;5112997;27;20370;-76
2021/04/16 02:07:46;;;;;;;5.22;1.60;;;;;;;3.07;73.96;102886.34;5158521;27;20147;-78
2021/04/16 02:10:23;;;;;;;8.25;2.17;;;;;;;3.15;74.38;102887.00;5031292;27;20810;-74
2021/04/16 02:13:00;;;;;;;5.07;1.88;;;;;;;3.19;74.30;102886.00;5073078;27;20130;-78
2021/04/16 02:15:36;;;;;;;6.78;2.00;;;;;;;3.26;74.32;102877.16;5111378;27;20403;-77
2021/04/16 02:18:13;;;;;;;13.77;2.10;;;;;;;3.33;74.50;102876.94;5066968;27;20134;-74
2021/04/16 02:20:49;;;;;;;12.10;2.30;;;;;;;3.35;74.43;102881.19;5036218;28;20403;-79
2021/04/16 02:23:26;;;;;;;7.10;1.88;;;;;;;3.41;74.39;102882.75;5109587;27;20980;-80
2021/04/16 02:26:02;;;;;;;8.73;2.13;;;;;;;3.41;73.93;102883.59;5066955;27;20399;-78
2021/04/16 02:28:39;;;;;;;7.93;2.20;;;;;;;3.36;74.13;102890.69;5070850;27;20119;-73
2021/04/16 02:31:15;;;;;;;7.50;2.10;;;;;;;3.27;74.79;102888.34;5136164;27;20398;-79
2021/04/16 02:33:52;;;;;;;5.90;1.83;;;;;;;3.24;74.85;102884.13;5066429;27;20770;-78
2021/04/16 02:36:28;;;;;;;5.20;2.05;;;;;;;3.43;74.84;102883.56;5075254;27;20908;-77
2021/04/16 02:39:07;;;;;;;9.57;1.90;;;;;;;3.34;74.44;102883.84;5095157;27;20129;-78
2021/04/16 02:41:43;;;;;;;4.93;1.73;;;;;;;3.33;74.36;102880.38;5045741;27;20364;-77
2021/04/16 02:44:21;;;;;;;7.57;1.63;;;;;;;3.39;74.45;102881.94;5094176;27;20660;-77
2021/04/16 02:46:58;;;;;;;7.15;2.20;;;;;;;3.33;74.51;102876.94;5088985;27;20382;-79
2021/04/16 02:49:35;;;;;;;8.02;1.80;;;;;;;3.30;74.67;102877.91;5087870;27;20594;-78
2021/04/16 02:52:11;;;;;;;7.47;2.28;;;;;;;3.28;74.95;102875.34;5108029;27;21371;-78
2021/04/16 02:54:48;;;;;;;4.95;1.92;;;;;;;3.33;74.30;102879.53;5129781;27;20124;-78
2021/04/16 02:57:25;;;;;;;4.55;2.10;;;;;;;3.23;74.38;102868.59;5045937;28;20408;-76
2021/04/16 03:00:06;;;;;;;8.43;2.13;;;;;;;3.17;74.89;102877.41;5081092;27;20134;-78
2021/04/16 03:02:42;;;;;;;3.88;1.90;;;;;;;3.07;75.25;102865.59;5055594;28;20753;-76
2021/04/16 03:05:20;;;;;;;9.18;2.40;;;;;;;3.04;75.67;102868.31;5134669;27;20117;-77
2021/04/16 03:09:35;;;;;;;4.70;2.30;;;;;;;3.05;75.50;102867.41;5055353;28;20369;-79
2021/04/16 03:12:11;;;;;;;7.07;2.35;;;;;;;3.07;74.58;102850.91;5087947;27;1553932;-77
2021/04/16 03:14:46;;;;;;;5.75;2.30;;;;;;;3.19;74.46;102864.41;5070993;28;20352;-78
2021/04/16 03:17:24;;;;;;;6.65;2.03;;;;;;;3.18;74.36;102860.09;5052732;28;20380;-75
2021/04/16 03:20:00;;;;;;;6.63;2.10;;;;;;;3.15;74.63;102861.06;5107908;27;20365;-76
2021/04/16 03:22:37;;;;;;;6.57;2.45;;;;;;;3.08;74.80;102862.97;5162940;27;20355;-76
2021/04/16 03:25:15;;;;;;;6.55;2.08;;;;;;;3.03;75.22;102864.88;5110027;27;20120;-77
2021/04/16 03:27:53;;;;;;;8.02;2.28;;;;;;;2.99;75.19;102862.41;5109811;27;20108;-79
2021/04/16 03:30:30;;;;;;;6.00;2.38;;;;;;;3.07;75.22;102869.06;5077203;27;20367;-76
2021/04/16 03:33:08;;;;;;;6.88;2.30;;;;;;;3.08;75.03;102870.75;5100210;27;20747;-77
2021/04/16 03:35:45;;;;;;;5.05;2.05;;;;;;;3.11;74.96;102872.44;5073727;27;20130;-77
2021/04/16 03:38:24;;;;;;;9.00;2.10;;;;;;;3.10;75.27;102862.94;5064798;28;20390;-76
2021/04/16 03:41:00;;;;;;;10.32;2.80;;;;;;;3.19;75.19;102873.03;5058793;27;20400;-78
2021/04/16 03:43:38;;;;;;;6.70;2.50;;;;;;;3.06;75.14;102863.94;5075397;27;20466;-78
2021/04/16 03:46:14;;;;;;;6.53;2.63;;;;;;;3.22;74.74;102874.66;5043948;28;20896;-76
2021/04/16 03:48:51;;;;;;;6.50;3.00;;;;;;;3.14;74.86;102866.28;5056459;27;20645;-76
2021/04/16 03:51:27;;;;;;;6.75;2.72;;;;;;;3.05;75.02;102850.13;5103461;27;20390;-79
2021/04/16 03:54:04;;;;;;;9.57;2.63;;;;;;;3.07;75.24;102863.00;5128881;27;20127;-77
2021/04/16 03:56:40;;;;;;;8.32;3.00;;;;;;;3.09;75.30;102869.88;5099445;27;20430;-78
2021/04/16 03:59:19;;;;;;;5.45;2.67;;;;;;;3.02;75.32;102872.69;5053153;27;20221;-78
2021/04/16 04:01:55;;;;;;;6.13;2.53;;;;;;;3.01;75.76;102881.34;5092879;27;20790;-78
2021/04/16 04:04:32;;;;;;;13.80;2.70;;;;;;;2.87;75.82;102861.88;5085803;28;20781;-77
2021/04/16 04:07:08;;;;;;;10.32;2.70;;;;;;;2.84;75.75;102885.28;5055211;27;20369;-76
2021/04/16 04:09:45;;;;;;;6.45;2.63;;;;;;;2.72;75.29;102873.53;5090112;27;20130;-76
2021/04/16 04:12:21;;;;;;;6.20;2.63;;;;;;;2.79;75.94;102870.75;5047364;27;20412;-76
2021/04/16 04:14:58;;;;;;;7.68;2.53;;;;;;;2.63;75.68;102866.00;5078458;27;20547;-79
2021/04/16 04:17:36;;;;;;;9.65;3.05;;;;;;;2.66;75.98;102863.34;5064071;27;20914;-77
2021/04/16 04:20:18;;;;;;;7.22;2.83;;;;;;;2.59;75.89;102871.31;5069454;27;20352;-77
2021/04/16 04:22:54;;;;;;;5.15;2.22;;;;;;;2.48;76.24;102867.28;5064878;28;20890;-78
2021/04/16 04:25:33;;;;;;;8.32;2.40;;;;;;;2.41;76.53;102868.34;5068125;27;20766;-76
2021/04/16 04:28:09;;;;;;;5.85;2.33;;;;;;;2.26;76.70;102867.03;5119431;27;20377;-78
2021/04/16 04:30:46;;;;;;;5.18;2.58;;;;;;;2.18;76.83;102855.16;5090473;27;20117;-76
2021/04/16 04:33:22;;;;;;;7.95;3.08;;;;;;;2.19;77.78;102869.81;5070132;27;20391;-77
2021/04/16 04:35:59;;;;;;;3.60;2.42;;;;;;;2.07;77.86;102865.78;5152777;27;20176;-77
2021/04/16 04:38:35;;;;;;;6.45;2.60;;;;;;;2.11;78.06;102860.50;5035191;27;20414;-75
2021/04/16 04:41:12;;;;;;;6.55;2.92;;;;;;;2.11;78.17;102869.97;5076540;27;20122;-76
2021/04/16 04:43:48;;;;;;;6.65;3.20;;;;;;;2.12;77.86;102866.53;5033486;28;20963;-75
2021/04/16 04:46:26;;;;;;;8.25;2.95;;;;;;;2.10;78.52;102871.72;5098796;27;20119;-77
2021/04/16 04:49:03;;;;;;;11.02;3.67;;;;;;;2.08;78.42;102870.94;5038051;28;20381;-78
2021/04/16 04:51:40;;;;;;;8.05;3.30;;;;;;;1.99;78.63;102865.13;5072557;27;20380;-76
2021/04/16 04:54:18;;;;;;;4.40;2.63;;;;;;;2.05;78.77;102870.16;5066039;27;20138;-75
2021/04/16 04:56:54;;;;;;;5.90;2.90;;;;;;;2.03;79.04;102877.94;5076134;27;20374;-74
2021/04/16 04:59:32;;;;;;;9.23;3.00;;;;;;;2.06;79.56;102877.88;5088126;27;20122;-76
2021/04/16 05:02:08;;;;;;;6.53;3.38;;;;;;;2.20;79.61;102876.69;5047865;27;20400;-78
2021/04/16 05:04:46;;;;;;;5.45;2.72;;;;;;;2.27;79.30;102878.22;5051405;27;20883;-76
2021/04/16 05:07:23;;;;;;;8.43;2.80;;;;;;;2.24;78.82;102876.56;5067460;28;20369;-76
2021/04/16 05:10:00;;;;;;;9.18;2.80;;;;;;;2.23;79.29;102880.03;5067147;27;20142;-77
2021/04/16 05:12:36;;;;;;;9.98;3.20;;;;;;;2.33;78.93;102876.31;5077735;27;21284;-77
2021/04/16 05:15:15;;;;;;;5.97;3.00;;;;;;;2.48;78.48;102887.16;5106404;27;20648;-78
2021/04/16 05:17:50;;;;;;;5.45;2.60;;;;;;;2.59;77.98;102879.09;5072211;27;20359;-77
2021/04/16 05:20:28;;;;;;;9.27;3.03;;;;;;;2.79;78.05;102889.75;5088782;27;20511;-76
2021/04/16 05:23:04;;;;;;;8.95;3.45;;;;;;;3.03;76.54;102884.75;5069912;27;20993;-77
2021/04/16 05:25:41;;;;;;;10.20;3.67;;;;;;;3.16;76.09;102888.66;5087322;27;20186;-77
2021/04/16 05:28:17;;;;;;;10.07;3.97;;;;;;;3.31;75.40;102884.78;5078563;27;20399;-74
2021/04/16 05:30:54;;;;;;;8.63;3.90;;;;;;;3.35;74.92;102876.00;5070752;28;20118;-79
2021/04/16 05:33:30;;;;;;;8.10;3.53;;;;;;;3.57;75.55;102883.13;5029693;27;20370;-77
2021/04/16 05:36:07;;;;;;;10.20;4.00;;;;;;;3.66;74.20;102885.44;5055893;27;20127;-75
2021/04/16 05:38:43;;;;;;;9.77;3.78;;;;;;;3.69;73.51;102888.78;5047743;28;20412;-75
2021/04/16 05:41:21;;;;;;;7.03;3.50;;;;;;;3.59;73.24;102869.19;5133460;27;20535;-78
2021/04/16 05:43:59;;;;;;;9.25;3.78;;;;;;;3.62;73.72;102878.66;5155230;27;20782;-77
2021/04/16 05:46:38;;;;;;;10.07;3.92;;;;;;;3.64;73.77;102876.84;5051268;27;20357;-76
2021/04/16 05:49:17;;;;;;;12.30;3.63;;;;;;;3.63;74.40;102888.09;5103748;27;20354;-74
2021/04/16 05:51:53;;;;;;;8.57;3.85;;;;;;;3.73;74.74;102894.72;5067675;28;20972;-76
2021/04/16 05:54:30;;;;;;;7.88;3.70;;;;;;;3.72;74.31;102892.16;5132479;27;20129;-76
2021/04/16 05:57:06;;;;;;;9.13;4.00;;;;;;;3.77;73.36;102901.50;5042576;27;20774;-78
2021/04/16 05:59:44;;;;;;;9.57;4.28;;;;;;;3.85;73.74;102896.91;5048186;28;20399;-77
2021/04/16 06:02:30;;;;;;;15.57;4.20;;;;;;;3.85;74.29;102903.84;5060430;28;20391;-77
2021/04/16 06:05:09;;;;;;;10.93;4.22;;;;;;;3.89;75.04;102903.69;5024298;28;20381;-75
2021/04/16 06:07:46;;;;;;;11.43;4.63;;;;;;;3.89;74.64;102903.69;5132730;27;20842;-75
2021/04/16 06:10:24;;;;;;;9.55;4.10;;;;;;;4.04;75.12;102904.09;5061252;27;20576;-77
2021/04/16 06:13:00;;;;;;;12.02;4.25;;;;;;;4.08;72.89;102905.69;5067272;27;20410;-75
2021/04/16 06:15:37;;;;;;;11.43;3.92;;;;;;;4.18;73.19;102912.28;5081785;27;20196;-76
2021/04/16 06:18:13;;;;;;;8.13;4.63;;;;;;;4.43;72.23;102901.03;5036933;27;20879;-76
2021/04/16 06:20:50;;;;;;;10.00;3.95;;;;;;;4.55;72.21;102912.75;5072786;27;20665;-78
2021/04/16 06:23:26;;;;;;;11.20;4.90;;;;;;;4.77;70.92;102899.84;5051896;28;20409;-76
2021/04/16 06:26:04;;;;;;;13.77;4.88;;;;;;;4.80;70.19;102884.97;5090924;27;20127;-77
2021/04/16 06:28:40;;;;;;;12.95;4.90;;;;;;;4.82;71.09;102890.09;5135887;27;20415;-76
2021/04/16 06:31:18;;;;;;;10.23;3.95;;;;;;;4.76;70.01;102888.56;5046505;27;1404155;-77
2021/04/16 06:33:44;;;;;;;8.02;3.95;;;;;;;4.79;70.86;102869.44;5013369;28;20064;-77
2021/04/16 06:36:12;;;;;;;9.02;4.20;;;;;;;4.84;70.13;102885.69;5025424;28;20053;-76
2021/04/16 06:38:41;;;;;;;10.95;4.55;;;;;;;5.00;69.31;102893.78;5011998;28;20041;-79
2021/04/16 06:41:20;;;;;;;9.32;3.92;;;;;;;5.15;69.03;102894.97;4995871;28;20038;-77
2021/04/16 06:43:52;;;;;;;10.57;4.35;;;;;;;5.18;68.11;102893.09;5012637;28;20041;-77
2021/04/16 06:46:35;;;;;;;9.32;4.05;;;;;;;5.31;67.84;102890.84;5031900;28;20795;-77
2021/04/16 06:49:05;;;;;;;14.25;4.10;;;;;;;5.41;68.04;102893.97;4992447;28;20112;-77
2021/04/16 06:51:34;;;;;;;7.40;4.22;;;;;;;5.44;66.85;102888.63;4973018;28;20130;-76
2021/04/16 06:54:03;;;;;;;8.57;3.65;;;;;;;5.58;65.88;102891.53;4976229;28;20077;-76
2021/04/16 06:56:39;;;;;;;7.40;3.92;;;;;;;5.70;66.51;102897.16;5011725;28;20570;-76
2021/04/16 06:59:13;;;;;;;8.27;3.97;;;;;;;5.74;65.29;102899.56;4978155;28;20878;-76
2021/04/16 07:01:55;;;;;;;9.10;4.53;;;;;;;5.71;65.31;102896.22;4988454;28;20041;-77
2021/04/16 07:04:48;;;;;;;11.32;4.20;;;;;;;5.78;64.96;102893.34;5015078;28;20037;-77
2021/04/16 07:07:20;;;;;;;11.00;3.97;;;;;;;5.89;63.77;102887.66;4982280;28;20045;-77
2021/04/16 07:09:50;;;;;;;9.50;3.93;;;;;;;6.15;63.04;102893.59;5026142;28;20423;-77
2021/04/16 07:12:19;;;;;;;9.35;3.40;;;;;;;6.23;62.31;102886.28;4985903;28;20042;-78
2021/04/16 07:14:49;;;;;;;6.90;3.15;;;;;;;6.51;62.22;102888.53;4998026;28;20041;-79
2021/04/16 07:17:19;;;;;;;5.80;3.53;;;;;;;6.61;59.53;102884.63;4990792;28;20053;-78
2021/04/16 07:19:44;;;;;;;10.75;3.08;;;;;;;6.66;57.74;102887.03;4999036;28;20042;-78
2021/04/16 07:22:18;;;;;;;8.80;2.60;;;;;;;6.83;56.23;102881.88;4993080;28;20048;-76
2021/04/16 07:24:46;;;;;;;6.70;2.60;;;;;;;6.78;54.98;102880.41;5005208;28;20072;-77
2021/04/16 07:27:42;;;;;;;6.53;2.45;;;;;;;6.91;57.37;102885.91;5013248;28;20037;-77
2021/04/16 07:30:28;;;;;;;6.05;2.28;;;;;;;6.84;54.08;102877.53;4991469;28;20064;-79
2021/04/16 07:32:54;;;;;;;4.82;2.25;;;;;;;6.89;54.93;102885.13;5028387;28;20058;-77
2021/04/16 07:35:32;;;;;;;6.72;2.47;;;;;;;7.02;54.69;102887.09;5020938;28;20073;-76
2021/04/16 07:38:25;;;;;;;10.57;2.92;;;;;;;7.17;54.87;102888.16;5009665;28;20042;-77
2021/04/16 07:40:51;;;;;;;4.88;2.47;;;;;;;7.33;53.13;102885.69;4988649;28;20045;-77
2021/04/16 07:43:44;;;;;;;3.50;1.60;;;;;;;7.21;53.16;102889.72;5005663;28;20088;-77
2021/04/16 07:46:32;;;;;;;5.55;1.92;;;;;;;7.31;52.42;102887.53;4981061;28;20129;-79
2021/04/16 07:49:13;;;;;;;4.07;1.55;;;;;;;7.56;52.72;102888.97;4996089;28;20053;-77
2021/04/16 07:51:45;;;;;;;5.55;1.92;;;;;;;7.57;53.12;102891.50;4999975;28;20754;-79
2021/04/16 07:54:28;;;;;;;1.85;1.17;;;;;;;7.56;50.72;102899.41;4997288;28;20184;-77
2021/04/16 07:57:18;;;;;;;;;;;;;;;7.64;49.48;102894.66;5011963;28;20044;-76
2021/04/16 08:00:05;;;;;;;3.70;1.40;;;;;;;7.56;49.38;102895.03;4974505;28;20417;-76
2021/04/16 08:02:54;;;;;;;5.93;1.40;;;;;;;7.72;50.54;102904.72;5012815;28;20129;-80
2021/04/16 08:05:26;;;;;;;2.17;1.30;;;;;;;7.77;51.19;102898.34;4966511;28;20042;-78
2021/04/16 08:08:25;;;;;;;11.15;1.55;;;;;;;7.74;49.50;102897.66;4982007;28;20739;-76
2021/04/16 08:10:57;;;;;;;2.20;1.27;;;;;;;7.69;49.01;102891.81;5013848;28;20080;-77
2021/04/16 08:13:27;;;;;;;4.55;0.80;;;;;;;7.86;46.82;102891.00;5008538;28;20041;-77
2021/04/16 08:15:54;;;;;;;1.83;1.00;;;;;;;7.96;46.31;102900.88;4998400;28;20132;-77
2021/04/16 08:18:26;;;;;;;6.43;0.98;;;;;;;8.09;46.33;102895.91;5014945;28;20616;-76
2021/04/16 08:21:08;;;;;;;2.60;1.03;;;;;;;8.00;46.13;102893.75;5014715;28;20041;-75
2021/04/16 08:23:43;;;;;;;3.75;1.20;;;;;;;8.08;44.82;102906.44;4978400;28;20056;-77
2021/04/16 08:26:09;;;;;;;7.05;1.30;;;;;;;8.17;46.74;102904.22;4973276;28;20517;-77
2021/04/16 08:28:59;;;;;;;6.93;1.23;;;;;;;8.22;46.24;102895.28;4997884;28;20056;-79
2021/04/16 08:31:44;;;;;;;1.83;1.20;;;;;;;8.09;45.00;102898.50;4991926;28;20050;-78
2021/04/16 08:34:14;;;;;;;1.45;0.80;;;;;;;8.23;44.71;102892.59;4963866;28;20100;-76
2021/04/16 08:36:43;;;;;;;1.73;1.00;;;;;;;8.24;45.80;102893.44;4959537;28;20054;-77
2021/04/16 08:39:27;;;;;;;4.15;1.00;;;;;;;8.23;46.12;102894.34;4974268;28;20046;-77
2021/04/16 08:42:10;;;;;;;2.55;1.25;;;;;;;8.48;44.79;102891.38;4978857;28;20153;-78
2021/04/16 08:44:53;;;;;;;2.72;0.98;;;;;;;8.50;44.89;102884.28;4984999;28;20098;-77
2021/04/16 08:47:33;;;;;;;2.15;1.08;;;;;;;8.58;43.24;102892.56;4984579;28;20049;-76
2021/04/16 08:50:00;;;;;;;3.55;1.17;;;;;;;8.52;42.82;102890.28;4996694;28;20754;-77
2021/04/16 08:52:29;;;;;;;6.43;1.33;;;;;;;8.51;43.91;102886.81;4978283;28;20042;-77
2021/04/16 08:55:06;;;;;;;1.27;0.90;;;;;;;8.45;43.48;102883.66;4980898;28;20408;-76
2021/04/16 08:57:40;;;;;;;3.42;1.13;;;;;;;8.61;44.76;102883.69;4974015;28;20054;-78
2021/04/16 09:00:16;;;;;;;5.15;0.90;;;;;;;8.82;42.29;102881.72;4976466;28;20038;-77
2021/04/16 09:02:44;;;;;;;3.65;1.30;;;;;;;8.74;42.97;102890.81;5006019;28;20129;-76
2021/04/16 09:05:13;;;;;;;1.80;0.95;;;;;;;8.59;43.00;102886.41;4982500;28;20050;-78
2021/04/16 09:07:43;;;;;;;3.05;1.10;;;;;;;8.55;43.75;102890.09;4990293;28;20057;-78
2021/04/16 09:10:09;;;;;;;1.70;0.90;;;;;;;8.64;43.44;102888.78;5003586;28;20053;-78
2021/04/16 09:12:40;;;;;;;4.15;1.20;;;;;;;8.62;43.29;102883.63;5002839;28;20033;-77
2021/04/16 09:15:06;;;;;;;2.92;1.35;;;;;;;8.76;43.51;102888.97;4970465;28;20046;-78
2021/04/16 09:18:01;;;;;;;3.40;1.00;;;;;;;8.95;42.68;102880.97;4963227;28;20038;-78
2021/04/16 09:20:46;;;;;;;3.22;1.00;;;;;;;8.98;41.60;102885.19;4958143;28;20065;-79
2021/04/16 09:23:40;;;;;;;2.30;1.15;;;;;;;8.74;42.67;102884.75;4996179;28;20070;-79
2021/04/16 09:26:06;;;;;;;;;;;;;;;8.80;41.62;102881.81;4990118;28;20403;-77
2021/04/16 09:28:43;;;;;;;1.40;1.00;;;;;;;8.99;43.99;102879.03;4997124;28;19918;-77
2021/04/16 09:31:26;;;;;;;2.03;0.88;;;;;;;8.88;41.63;102877.00;5012881;28;20058;-76
2021/04/16 09:34:16;;;;;;;5.60;1.00;;;;;;;8.87;41.41;102879.69;4981539;28;20181;-77
2021/04/16 09:36:48;;;;;;;5.75;1.20;;;;;;;8.90;41.39;102880.38;4991832;28;20199;-78
2021/04/16 09:39:38;;;;;;;3.03;0.80;;;;;;;8.70;41.37;102880.59;4977551;28;20035;-77
2021/04/16 09:42:46;;;;;;;1.83;0.98;;;;;;;9.05;41.91;102880.47;4997844;28;20092;-78
2021/04/16 09:45:35;;;;;;;3.47;0.80;;;;;;;9.21;40.20;102873.47;4980083;28;21387;-76
2021/04/16 09:48:07;;;;;;;2.35;0.82;;;;;;;9.39;41.92;102876.81;4980588;28;20046;-78
2021/04/16 09:50:39;;;;;;;1.23;0.90;;;;;;;9.62;41.32;102874.66;4988896;28;20046;-76
2021/04/16 09:53:13;;;;;;;1.17;0.90;;;;;;;9.58;39.88;102873.16;4996221;28;20052;-76
2021/04/16 09:56:17;;;;;;;4.82;0.73;;;;;;;9.20;38.94;102873.53;5012769;28;20042;-77
2021/04/16 09:58:51;;;;;;;3.58;0.93;;;;;;;9.64;40.57;102883.28;4996504;28;20067;-79
2021/04/16 10:01:25;;;;;;;2.65;0.82;;;;;;;9.74;40.31;102869.56;4985562;28;20092;-77
2021/04/16 10:03:59;;;;;;;1.15;0.80;;;;;;;9.87;38.66;102874.06;4996484;28;20108;-78
2021/04/16 10:06:28;;;;;;;2.22;0.90;;;;;;;9.77;39.94;102875.56;4981477;28;20501;-77
2021/04/16 10:09:12;;;;;;;4.57;1.23;;;;;;;9.74;40.11;102872.19;4994676;28;20050;-77
2021/04/16 10:11:45;;;;;;;2.55;0.85;;;;;;;10.08;39.27;102872.81;4972642;28;20176;-75
2021/04/16 10:14:17;;;;;;;2.05;0.93;;;;;;;10.06;39.51;102864.22;4986539;28;20111;-78
2021/04/16 10:16:44;;;;;;;4.53;0.90;;;;;;;9.77;39.49;102872.94;4981687;28;20508;-78
2021/04/16 10:19:18;;;;;;;3.65;1.00;;;;;;;9.84;38.32;102866.41;4995736;28;20056;-78
2021/04/16 10:21:45;;;;;;;1.50;0.90;;;;;;;9.87;38.80;102866.22;4979776;28;20080;-77
2021/04/16 10:30:47;;;;;;;2.28;0.75;;;;;;;10.10;37.59;102870.13;4954255;28;20062;-78
2021/04/16 10:39:39;;;;;;;1.80;0.70;;;;;;;10.46;37.63;102856.56;4977154;28;20043;-79
2021/04/16 11:24:07;;;;;;;1.48;0.50;;;;;;;11.19;35.68;102834.50;4997764;28;20087;-78
2021/04/16 11:28:25;;;;;;;2.25;0.77;;;;;;;11.14;36.19;102835.75;4987709;28;20066;-76
2021/04/16 12:39:17;;;;;;;3.38;0.88;;;;;;;11.23;35.44;102816.78;5090642;27;20875;-81
2021/04/16 12:41:57;;;;;;;2.33;1.02;;;;;;;10.50;36.45;102815.25;5110944;27;20370;-78
2021/04/16 12:44:44;;;;;;;1.98;0.65;;;;;;;10.93;36.76;102815.19;5091483;27;20366;-76
2021/04/16 12:47:27;;;;;;;5.90;0.90;;;;;;;10.83;35.00;102806.19;5071406;28;20340;-77
2021/04/16 12:50:06;;;;;;;3.50;0.80;;;;;;;10.85;36.05;102804.31;5078698;27;20781;-77
2021/04/16 12:52:42;;;;;;;2.08;0.65;;;;;;;11.26;35.56;102806.03;5081257;27;20379;-77
2021/04/16 12:55:20;;;;;;;1.90;0.98;;;;;;;11.30;35.54;102802.25;5119323;27;20118;-77
2021/04/16 12:58:05;;;;;;;3.97;1.05;;;;;;;11.13;35.49;102807.78;5045005;27;20369;-76
2021/04/16 13:00:43;;;;;;;3.33;0.90;;;;;;;10.96;36.78;102793.97;5081987;27;20409;-75
2021/04/16 13:03:25;;;;;;;3.35;0.90;;;;;;;11.15;36.46;102800.66;5090319;27;20398;-74
2021/04/16 13:06:05;;;;;;;2.63;1.00;;;;;;;11.29;35.35;102784.84;5050220;28;20380;-79
2021/04/16 13:08:42;;;;;;;3.40;1.20;;;;;;;11.26;35.74;102790.28;5028445;28;20389;-76
2021/04/16 13:11:21;;;;;;;5.47;0.90;;;;;;;11.89;36.50;102791.34;5085274;27;20114;-78
2021/04/16 13:13:57;;;;;;;2.00;0.90;;;;;;;12.43;34.64;102783.22;5120609;27;20374;-79
2021/04/16 13:16:37;;;;;;;1.63;0.90;;;;;;;12.80;33.75;102777.09;5114954;27;20117;-77
2021/04/16 13:19:35;;;;;;;3.03;1.15;;;;;;;12.40;34.94;102774.69;5055369;28;20849;-79
2021/04/16 13:22:15;;;;;;;2.83;1.20;;;;;;;12.01;35.67;102782.63;5086475;27;20201;-76
2021/04/16 13:24:50;;;;;;;4.45;1.30;;;;;;;12.17;35.85;102777.16;5136012;27;704571;-76
2021/04/16 13:27:28;;;;;;;3.13;1.13;;;;;;;12.13;35.85;102780.06;5033703;27;20369;-81
2021/04/16 13:30:07;;;;;;;4.35;1.20;;;;;;;12.50;37.09;102770.44;5069910;27;20369;-77
2021/04/16 13:32:49;;;;;;;3.50;1.15;;;;;;;13.00;34.13;102765.09;5058786;28;20866;-77
2021/04/16 13:35:38;;;;;;;5.25;1.40;;;;;;;12.96;34.72;102769.75;5068649;28;20357;-76
2021/04/16 13:38:21;;;;;;;5.88;1.30;;;;;;;13.35;33.08;102759.84;5099816;27;20382;-77
2021/04/16 13:41:00;;;;;;;2.58;1.13;;;;;;;13.52;33.26;102755.09;5024423;28;20390;-76
2021/04/16 13:43:37;;;;;;;2.35;1.00;;;;;;;14.17;32.88;102758.88;5061447;28;20391;-78
2021/04/16 13:46:20;;;;;;;4.90;1.30;;;;;;;14.70;32.01;102760.88;5141157;27;20127;-77
2021/04/16 13:48:56;;;;;;;3.17;1.50;;;;;;;13.81;33.26;102752.88;5122022;27;20366;-77
2021/04/16 13:51:36;;;;;;;7.22;1.30;;;;;;;13.47;34.05;102758.09;5074843;27;20667;-76
2021/04/16 13:54:12;;;;;;;3.17;1.25;;;;;;;13.82;34.31;102754.53;5085426;27;20764;-75
2021/04/16 13:56:48;;;;;;;2.80;1.42;;;;;;;13.31;35.56;102752.31;5088443;27;1401773;-75
2021/04/16 13:59:25;;;;;;;2.58;1.30;;;;;;;13.47;33.92;102757.25;5111899;27;20357;-74
2021/04/16 14:02:02;;;;;;;2.50;1.58;;;;;;;14.02;34.23;102758.28;5102086;27;20129;-78
2021/04/16 14:04:41;;;;;;;4.15;1.52;;;;;;;13.20;35.88;102753.94;5112736;27;20371;-78
2021/04/16 14:07:18;;;;;;;3.75;1.50;;;;;;;13.78;34.88;102755.75;5064449;27;20724;-76
2021/04/16 14:09:44;;;;;;;4.15;1.30;;;;;;;14.89;34.22;102752.28;5038588;28;20037;-78
2021/04/16 14:12:11;;;;;;;2.90;1.40;;;;;;;14.63;32.07;102749.13;5028444;28;20060;-75
2021/04/16 14:14:37;;;;;;;4.75;1.30;;;;;;;14.37;32.52;102744.94;5060168;28;20035;-78
2021/04/16 14:17:11;;;;;;;4.80;1.10;;;;;;;13.83;32.82;102746.53;5028740;28;20112;-78
2021/04/16 14:19:42;;;;;;;1.85;1.13;;;;;;;12.77;36.40;102753.59;5034425;28;20053;-75
2021/04/16 14:22:12;;;;;;;2.67;1.33;;;;;;;12.04;35.56;102750.84;5026829;28;20045;-74
2021/04/16 14:24:37;;;;;;;3.05;1.20;;;;;;;12.55;35.42;102749.06;5041384;28;20074;-80
2021/04/16 14:27:03;;;;;;;3.78;1.10;;;;;;;13.46;34.41;102740.59;5049727;28;21202;-76